createdAt,value
2019-03-24T00:00:42.021Z,2.13
2019-03-24T00:03:11.622Z,2.00
2019-03-24T00:05:41.217Z,1.80
2019-03-24T00:08:10.782Z,2.00
2019-03-24T00:10:40.293Z,2.00
2019-03-24T00:13:10.019Z,2.20
2019-03-24T00:15:39.695Z,1.93
2019-03-24T00:18:09.287Z,1.77
2019-03-24T00:20:38.896Z,1.93
2019-03-24T00:23:08.450Z,2.17
2019-03-24T00:25:38.077Z,2.20
2019-03-24T00:28:07.677Z,2.27
2019-03-24T00:30:37.210Z,2.00
2019-03-24T00:33:06.809Z,1.87
2019-03-24T00:35:36.391Z,2.43
2019-03-24T00:38:06.318Z,2.23
2019-03-24T00:40:35.899Z,2.60
2019-03-24T00:43:05.469Z,3.37
2019-03-24T00:45:37.138Z,2.50
2019-03-24T00:48:07.058Z,2.60
2019-03-24T00:50:37.047Z,2.27
2019-03-24T00:53:07.339Z,2.70
2019-03-24T00:55:36.835Z,2.20
2019-03-24T00:58:06.426Z,2.47
2019-03-24T01:00:54.525Z,2.03
2019-03-24T01:03:24.150Z,1.43
2019-03-24T01:05:53.733Z,2.23
2019-03-24T01:08:23.257Z,2.00
2019-03-24T01:10:52.845Z,2.43
2019-03-24T01:13:22.409Z,2.50
2019-03-24T01:15:51.966Z,1.93
2019-03-24T01:18:21.549Z,1.90
2019-03-24T01:20:51.449Z,2.47
2019-03-24T01:23:21.053Z,1.60
2019-03-24T01:25:50.894Z,2.10
2019-03-24T01:28:20.394Z,1.97
2019-03-24T01:30:49.990Z,2.30
2019-03-24T01:33:19.567Z,2.33
2019-03-24T01:35:49.147Z,2.03
2019-03-24T01:38:18.795Z,2.27
2019-03-24T01:40:48.316Z,1.63
2019-03-24T01:43:17.946Z,1.80
2019-03-24T01:45:58.109Z,2.13
2019-03-24T01:48:20.369Z,2.10
2019-03-24T01:50:52.043Z,1.87
2019-03-24T01:53:21.613Z,1.83
2019-03-24T01:55:51.201Z,1.53
2019-03-24T01:58:20.785Z,1.80
2019-03-24T02:00:50.362Z,1.97
2019-03-24T02:03:19.866Z,2.13
2019-03-24T02:05:49.493Z,2.00
2019-03-24T02:08:19.047Z,1.50
2019-03-24T02:10:48.836Z,1.80
2019-03-24T02:13:18.762Z,1.80
2019-03-24T02:15:48.346Z,1.57
2019-03-24T02:18:17.859Z,1.50
2019-03-24T02:20:47.471Z,2.00
2019-03-24T02:23:17.079Z,2.53
2019-03-24T02:25:46.671Z,1.60
2019-03-24T02:28:17.485Z,1.53
2019-03-24T02:30:47.515Z,1.67
2019-03-24T02:33:17.175Z,1.67
2019-03-24T02:35:47.388Z,1.70
2019-03-24T02:38:16.885Z,1.63
2019-03-24T02:40:46.459Z,1.87
2019-03-24T02:43:16.055Z,1.80
2019-03-24T02:45:45.648Z,1.60
2019-03-24T02:48:15.603Z,2.07
2019-03-24T02:50:46.235Z,1.83
2019-03-24T02:53:15.837Z,2.80
2019-03-24T02:55:45.470Z,2.50
2019-03-24T02:58:15.007Z,3.13
2019-03-24T03:00:44.649Z,2.60
2019-03-24T03:03:14.207Z,2.13
2019-03-24T03:05:44.294Z,2.93
2019-03-24T03:08:13.923Z,3.00
2019-03-24T03:10:43.646Z,2.83
2019-03-24T03:13:13.723Z,2.60
2019-03-24T03:15:43.507Z,2.40
2019-03-24T03:18:13.151Z,2.80
2019-03-24T03:20:42.858Z,2.33
2019-03-24T03:23:12.633Z,2.30
2019-03-24T03:25:42.265Z,2.47
2019-03-24T03:28:11.874Z,2.57
2019-03-24T03:30:41.390Z,2.90
2019-03-24T03:33:10.906Z,2.70
2019-03-24T03:35:40.738Z,3.03
2019-03-24T03:38:10.315Z,2.77
2019-03-24T03:40:39.823Z,2.93
2019-03-24T03:43:09.434Z,2.87
2019-03-24T03:45:39.482Z,3.07
2019-03-24T03:48:09.472Z,3.33
2019-03-24T03:50:40.199Z,3.30
2019-03-24T03:53:09.691Z,3.27
2019-03-24T03:55:39.221Z,3.20
2019-03-24T03:58:08.723Z,3.10
2019-03-24T04:00:38.294Z,2.90
2019-03-24T04:03:26.793Z,3.23
2019-03-24T04:05:56.759Z,2.53
2019-03-24T04:08:26.485Z,3.00
2019-03-24T04:10:56.032Z,3.43
2019-03-24T04:13:25.685Z,2.43
2019-03-24T04:15:55.183Z,3.13
2019-03-24T04:18:25.244Z,3.20
2019-03-24T04:20:54.817Z,2.70
2019-03-24T04:23:24.387Z,3.00
2019-03-24T04:25:53.955Z,3.27
2019-03-24T04:28:23.530Z,2.90
2019-03-24T04:30:53.035Z,3.33
2019-03-24T04:33:22.994Z,3.10
2019-03-24T04:35:52.593Z,3.13
2019-03-24T04:38:22.175Z,3.80
2019-03-24T04:40:52.598Z,2.87
2019-03-24T04:43:22.175Z,3.03
2019-03-24T04:45:51.814Z,2.90
2019-03-24T04:48:22.055Z,3.03
2019-03-24T04:50:51.629Z,3.63
2019-03-24T04:53:21.809Z,3.43
2019-03-24T04:55:51.410Z,3.77
2019-03-24T04:58:20.843Z,2.93
2019-03-24T05:00:50.418Z,2.77
2019-03-24T05:03:19.954Z,3.93
2019-03-24T05:05:49.762Z,3.00
2019-03-24T05:08:19.755Z,3.10
2019-03-24T05:10:49.274Z,3.90
2019-03-24T05:13:18.856Z,2.87
2019-03-24T05:15:48.426Z,3.30
2019-03-24T05:18:18.093Z,2.83
2019-03-24T05:20:47.691Z,3.00
2019-03-24T05:23:17.274Z,3.17
2019-03-24T05:25:46.879Z,3.07
2019-03-24T05:28:16.445Z,2.77
2019-03-24T05:30:46.030Z,2.97
2019-03-24T05:33:16.190Z,3.50
2019-03-24T05:35:45.735Z,3.03
2019-03-24T05:38:15.229Z,2.57
2019-03-24T05:40:45.632Z,2.40
2019-03-24T05:43:15.213Z,3.33
2019-03-24T05:45:44.798Z,2.40
2019-03-24T05:48:14.442Z,3.00
2019-03-24T05:50:44.026Z,2.60
2019-03-24T05:53:13.525Z,2.93
2019-03-24T05:55:43.111Z,2.37
2019-03-24T05:58:12.686Z,2.00
2019-03-24T06:00:42.254Z,2.03
2019-03-24T06:03:12.492Z,2.47
2019-03-24T06:05:42.402Z,2.40
2019-03-24T06:08:12.869Z,2.67
2019-03-24T06:10:42.743Z,3.33
2019-03-24T06:13:12.321Z,3.00
2019-03-24T06:15:41.903Z,2.23
2019-03-24T06:18:11.869Z,2.53
2019-03-24T06:20:41.458Z,2.97
2019-03-24T06:23:11.042Z,2.70
2019-03-24T06:25:41.619Z,2.53
2019-03-24T06:28:11.193Z,2.13
2019-03-24T06:30:40.773Z,2.53
2019-03-24T06:33:10.319Z,2.53
2019-03-24T06:35:39.903Z,2.70
2019-03-24T06:38:09.483Z,2.00
2019-03-24T06:40:39.563Z,2.03
2019-03-24T06:43:09.133Z,2.50
2019-03-24T06:45:38.704Z,2.60
2019-03-24T06:48:08.986Z,2.50
2019-03-24T06:50:38.565Z,2.30
2019-03-24T06:53:08.054Z,2.60
2019-03-24T06:55:37.654Z,2.57
2019-03-24T06:58:07.245Z,2.40
2019-03-24T07:00:36.830Z,2.03
2019-03-24T07:03:06.943Z,2.47
2019-03-24T07:05:36.934Z,2.27
2019-03-24T07:08:06.682Z,2.67
2019-03-24T07:10:36.375Z,1.83
2019-03-24T07:13:05.950Z,1.93
2019-03-24T07:15:35.450Z,1.70
2019-03-24T07:18:08.584Z,2.10
2019-03-24T07:20:36.722Z,2.30
2019-03-24T07:23:06.306Z,2.10
2019-03-24T07:25:36.466Z,2.00
2019-03-24T07:28:06.069Z,2.50
2019-03-24T07:30:35.647Z,2.10
2019-03-24T07:33:05.234Z,2.17
2019-03-24T07:35:34.814Z,2.30
2019-03-24T07:38:04.449Z,2.13
2019-03-24T07:40:34.717Z,2.10
2019-03-24T07:43:06.080Z,2.20
2019-03-24T07:45:35.695Z,2.97
2019-03-24T07:48:06.031Z,2.80
2019-03-24T07:50:35.723Z,2.40
2019-03-24T07:53:05.409Z,2.60
2019-03-24T07:55:35.065Z,2.57
2019-03-24T07:58:04.587Z,2.63
2019-03-24T08:00:35.870Z,2.40
2019-03-24T08:03:05.795Z,2.50
2019-03-24T08:05:35.417Z,2.20
2019-03-24T08:08:05.773Z,2.50
2019-03-24T08:10:35.829Z,3.00
2019-03-24T08:13:05.327Z,2.37
2019-03-24T08:15:34.847Z,2.50
2019-03-24T08:18:04.527Z,2.77
2019-03-24T08:20:34.153Z,2.23
2019-03-24T08:23:03.750Z,2.10
2019-03-24T08:25:33.471Z,2.37
2019-03-24T08:28:03.054Z,2.47
2019-03-24T08:30:37.014Z,2.07
2019-03-24T08:33:06.650Z,2.33
2019-03-24T08:35:36.422Z,2.60
2019-03-24T08:38:06.974Z,2.13
2019-03-24T08:40:36.493Z,2.00
2019-03-24T08:43:06.509Z,2.53
2019-03-24T08:45:36.779Z,2.20
2019-03-24T08:48:06.362Z,2.80
2019-03-24T08:50:35.945Z,1.80
2019-03-24T08:53:05.909Z,2.33
2019-03-24T08:55:35.887Z,2.27
2019-03-24T08:58:05.649Z,2.27
2019-03-24T09:00:35.647Z,2.17
2019-03-24T09:03:05.158Z,1.90
2019-03-24T09:05:34.734Z,2.10
2019-03-24T09:08:04.457Z,2.30
2019-03-24T09:10:34.238Z,2.37
2019-03-24T09:13:04.276Z,1.90
2019-03-24T09:15:34.530Z,2.73
2019-03-24T09:18:04.039Z,2.57
2019-03-24T09:20:41.261Z,2.00
2019-03-24T09:23:04.943Z,2.13
2019-03-24T09:25:35.090Z,2.33
2019-03-24T09:28:04.971Z,2.30
2019-03-24T09:30:36.553Z,2.33
2019-03-24T09:33:06.564Z,2.07
2019-03-24T09:35:36.171Z,2.27
2019-03-24T09:38:06.289Z,2.40
2019-03-24T09:40:36.223Z,2.33
2019-03-24T09:43:05.758Z,2.70
2019-03-24T09:45:36.018Z,2.00
2019-03-24T09:48:05.615Z,2.13
2019-03-24T09:50:35.253Z,2.27
2019-03-24T09:53:05.169Z,2.20
2019-03-24T09:55:34.755Z,2.37
2019-03-24T09:58:04.276Z,2.97
2019-03-24T10:00:34.598Z,2.10
2019-03-24T10:03:04.225Z,1.87
2019-03-24T10:05:33.742Z,1.93
2019-03-24T10:08:03.742Z,1.77
2019-03-24T10:10:33.490Z,1.40
2019-03-24T10:13:03.087Z,2.50
2019-03-24T10:15:33.460Z,2.47
2019-03-24T10:18:03.044Z,2.13
2019-03-24T10:20:32.562Z,2.13
2019-03-24T10:23:02.897Z,2.30
2019-03-24T10:25:32.473Z,2.47
2019-03-24T10:28:01.983Z,1.83
2019-03-24T10:30:32.022Z,2.90
2019-03-24T10:33:01.442Z,2.17
2019-03-24T10:35:30.946Z,2.03
2019-03-24T10:38:00.787Z,2.00
2019-03-24T10:40:30.401Z,1.53
2019-03-24T10:42:59.993Z,2.10
2019-03-24T10:45:29.630Z,2.10
2019-03-24T10:47:59.221Z,1.90
2019-03-24T10:50:28.806Z,1.47
2019-03-24T10:52:58.893Z,2.00
2019-03-24T10:55:28.575Z,1.70
2019-03-24T10:57:58.396Z,2.03
2019-03-24T11:00:44.325Z,1.90
2019-03-24T11:03:13.915Z,1.93
2019-03-24T11:05:43.505Z,2.00
2019-03-24T11:08:13.435Z,2.73
2019-03-24T11:10:43.203Z,1.97
2019-03-24T11:13:12.719Z,2.40
2019-03-24T11:15:43.084Z,2.47
2019-03-24T11:18:13.245Z,2.00
2019-03-24T11:20:42.862Z,2.67
2019-03-24T11:23:12.491Z,2.27
2019-03-24T11:25:41.995Z,2.15
2019-03-24T11:28:11.590Z,1.93
2019-03-24T11:30:41.850Z,2.10
2019-03-24T11:33:11.383Z,1.70
2019-03-24T11:35:40.960Z,2.70
2019-03-24T11:38:10.911Z,1.83
2019-03-24T11:40:40.483Z,2.20
2019-03-24T11:43:10.065Z,2.10
2019-03-24T11:45:40.083Z,1.97
2019-03-24T11:48:09.450Z,2.27
2019-03-24T11:50:38.906Z,2.00
2019-03-24T11:53:08.858Z,1.70
2019-03-24T11:55:40.036Z,1.67
2019-03-24T11:58:09.609Z,2.27
2019-03-24T12:00:40.797Z,1.87
2019-03-24T12:03:10.402Z,1.63
2019-03-24T12:05:39.990Z,2.07
2019-03-24T12:08:10.042Z,2.07
2019-03-24T12:10:39.766Z,1.90
2019-03-24T12:13:09.918Z,1.87
2019-03-24T12:15:39.502Z,2.17
2019-03-24T12:18:09.038Z,1.73
2019-03-24T12:20:38.637Z,1.80
2019-03-24T12:23:08.245Z,1.43
2019-03-24T12:25:37.815Z,1.50
2019-03-24T12:28:07.535Z,1.53
2019-03-24T12:30:37.167Z,1.17
2019-03-24T12:33:06.684Z,1.03
2019-03-24T12:35:36.199Z,1.00
2019-03-24T12:38:06.434Z,0.97
2019-03-24T12:40:35.938Z,1.30
2019-03-24T12:43:05.545Z,1.20
2019-03-24T12:45:35.861Z,1.40
2019-03-24T12:48:05.366Z,1.07
2019-03-24T12:50:34.972Z,1.40
2019-03-24T12:53:04.891Z,1.63
2019-03-24T12:55:34.427Z,1.33
2019-03-24T12:58:04.150Z,1.50
2019-03-24T13:00:39.649Z,1.40
2019-03-24T13:03:09.248Z,1.20
2019-03-24T13:05:38.852Z,1.80
2019-03-24T13:08:15.923Z,1.30
2019-03-24T13:10:45.624Z,1.57
2019-03-24T13:13:15.890Z,1.53
2019-03-24T13:15:46.199Z,1.60
2019-03-24T13:18:15.808Z,1.50
2019-03-24T13:20:45.466Z,1.57
2019-03-24T13:23:15.622Z,1.80
2019-03-24T13:25:45.261Z,1.33
2019-03-24T13:28:14.774Z,1.90
2019-03-24T13:30:44.747Z,1.53
2019-03-24T13:33:14.244Z,2.20
2019-03-24T13:35:43.902Z,2.30
2019-03-24T13:38:13.530Z,2.00
2019-03-24T13:40:43.138Z,2.27
2019-03-24T13:43:12.749Z,1.63
2019-03-24T13:45:42.585Z,2.63
2019-03-24T13:48:12.198Z,1.83
2019-03-24T13:50:41.794Z,1.93
2019-03-24T13:53:11.821Z,2.27
2019-03-24T13:55:41.423Z,2.50
2019-03-24T13:58:12.294Z,2.80
2019-03-24T14:00:42.462Z,2.57
2019-03-24T14:03:12.050Z,1.80
2019-03-24T14:05:41.850Z,2.63
2019-03-24T14:08:11.801Z,2.20
2019-03-24T14:10:41.650Z,1.90
2019-03-24T14:13:11.620Z,2.13
2019-03-24T14:15:41.671Z,2.40
2019-03-24T14:18:11.431Z,1.80
2019-03-24T14:20:43.672Z,1.70
2019-03-24T14:23:12.639Z,1.40
2019-03-24T14:25:42.262Z,1.40
2019-03-24T14:28:11.797Z,2.50
2019-03-24T14:30:47.017Z,1.87
2019-03-24T14:33:16.913Z,1.57
2019-03-24T14:35:46.495Z,2.00
2019-03-24T14:38:16.415Z,1.93
2019-03-24T14:40:45.959Z,1.90
2019-03-24T14:43:15.688Z,1.90
2019-03-24T14:45:45.333Z,2.63
2019-03-24T14:48:14.926Z,2.17
2019-03-24T14:50:54.084Z,2.27
2019-03-24T14:53:16.316Z,1.60
2019-03-24T14:55:45.902Z,1.80
2019-03-24T14:58:15.596Z,1.83
2019-03-24T15:00:47.387Z,1.43
2019-03-24T15:03:16.989Z,1.43
2019-03-24T15:05:46.588Z,1.63
2019-03-24T15:08:16.455Z,2.07
2019-03-24T15:10:46.357Z,1.30
2019-03-24T15:13:16.644Z,1.60
2019-03-24T15:15:46.294Z,2.60
2019-03-24T15:18:15.970Z,1.67
2019-03-24T15:20:45.608Z,1.47
2019-03-24T15:23:15.141Z,1.73
2019-03-24T15:25:44.727Z,1.60
2019-03-24T15:28:14.339Z,1.43
2019-03-24T15:30:43.854Z,1.27
2019-03-24T15:33:13.460Z,1.37
2019-03-24T15:35:43.412Z,1.83
2019-03-24T15:38:13.022Z,1.33
2019-03-24T15:40:43.267Z,1.70
2019-03-24T15:43:13.022Z,2.00
2019-03-24T15:45:42.682Z,1.37
2019-03-24T15:48:12.277Z,1.43
2019-03-24T15:50:43.179Z,1.50
2019-03-24T15:53:12.791Z,1.17
2019-03-24T15:55:43.936Z,1.80
2019-03-24T15:58:13.513Z,1.17
2019-03-24T16:00:47.469Z,1.57
2019-03-24T16:03:17.255Z,1.40
2019-03-24T16:05:47.091Z,1.73
2019-03-24T16:08:16.596Z,1.70
2019-03-24T16:10:46.206Z,2.07
2019-03-24T16:13:16.238Z,1.40
2019-03-24T16:15:46.490Z,1.20
2019-03-24T16:18:16.070Z,1.67
2019-03-24T16:20:46.155Z,1.23
2019-03-24T16:23:15.763Z,1.60
2019-03-24T16:25:45.355Z,1.50
2019-03-24T16:28:14.970Z,1.40
2019-03-24T16:30:44.560Z,1.43
2019-03-24T16:33:14.074Z,1.93
2019-03-24T16:35:43.951Z,2.10
2019-03-24T16:38:13.538Z,2.20
2019-03-24T16:40:43.126Z,1.70
2019-03-24T16:43:12.723Z,1.60
2019-03-24T16:45:42.234Z,1.70
2019-03-24T16:48:11.899Z,2.50
2019-03-24T16:50:41.934Z,3.13
2019-03-24T16:53:11.566Z,8.60
2019-03-24T16:55:41.166Z,4.33
2019-03-24T16:58:10.801Z,4.17
2019-03-24T17:00:40.334Z,3.90
2019-03-24T17:03:09.941Z,4.83
2019-03-24T17:05:39.986Z,5.40
2019-03-24T17:08:09.649Z,4.10
2019-03-24T17:10:39.255Z,5.03
2019-03-24T17:13:09.015Z,5.27
2019-03-24T17:15:41.719Z,3.90
2019-03-24T17:18:11.445Z,2.90
2019-03-24T17:20:41.622Z,2.97
2019-03-24T17:23:11.145Z,4.40
2019-03-24T17:25:40.732Z,3.70
2019-03-24T17:28:10.352Z,4.17
2019-03-24T17:30:39.885Z,3.67
2019-03-24T17:33:09.585Z,4.67
2019-03-24T17:35:39.220Z,4.30
2019-03-24T17:38:09.102Z,3.43
2019-03-24T17:40:39.225Z,2.87
2019-03-24T17:43:09.609Z,2.67
2019-03-24T17:45:39.099Z,2.50
2019-03-24T17:48:08.886Z,2.70
2019-03-24T17:50:38.756Z,3.20
2019-03-24T17:53:08.335Z,3.20
2019-03-24T17:55:37.935Z,3.13
2019-03-24T17:58:07.466Z,3.60
2019-03-24T18:00:46.321Z,2.70
2019-03-24T18:03:16.298Z,3.00
2019-03-24T18:05:45.882Z,3.10
2019-03-24T18:08:15.791Z,3.37
2019-03-24T18:10:45.641Z,2.90
2019-03-24T18:13:15.225Z,2.90
2019-03-24T18:15:45.114Z,2.70
2019-03-24T18:18:15.388Z,2.60
2019-03-24T18:20:44.882Z,3.13
2019-03-24T18:23:14.512Z,3.10
2019-03-24T18:25:44.170Z,3.23
2019-03-24T18:28:13.762Z,2.93
2019-03-24T18:34:39.758Z,2.80
2019-03-24T18:37:09.258Z,2.97
2019-03-24T18:39:38.858Z,2.30
2019-03-24T18:42:08.863Z,2.60
2019-03-24T18:44:38.645Z,2.87
2019-03-24T18:47:08.222Z,2.60
2019-03-24T18:49:38.317Z,2.40
2019-03-24T18:52:09.108Z,2.60
2019-03-24T18:54:38.702Z,2.20
2019-03-24T18:57:08.251Z,1.97
2019-03-24T18:59:37.863Z,2.30
2019-03-24T19:02:07.462Z,2.50
2019-03-24T19:04:37.070Z,2.10
2019-03-24T19:07:06.760Z,2.50
2019-03-24T19:09:36.333Z,2.37
2019-03-24T19:12:06.167Z,1.87
2019-03-24T19:14:35.757Z,1.90
2019-03-24T19:17:05.350Z,1.77
2019-03-24T19:19:35.006Z,1.97
2019-03-24T19:22:04.578Z,1.77
2019-03-24T19:24:34.410Z,2.30
2019-03-24T19:27:03.954Z,1.80
2019-03-24T19:29:33.625Z,1.90
2019-03-24T19:32:03.301Z,2.13
2019-03-24T19:34:33.162Z,2.50
2019-03-24T19:37:03.007Z,2.27
2019-03-24T19:39:32.855Z,2.40
2019-03-24T19:42:02.902Z,2.63
2019-03-24T19:44:32.501Z,1.93
2019-03-24T19:47:02.014Z,2.43
2019-03-24T19:49:31.727Z,1.93
2019-03-24T19:52:01.335Z,2.27
2019-03-24T19:54:31.512Z,2.57
2019-03-24T19:57:01.189Z,2.73
2019-03-24T19:59:31.162Z,2.30
2019-03-24T20:02:00.693Z,1.73
2019-03-24T20:04:30.791Z,2.17
2019-03-24T20:07:00.469Z,1.50
2019-03-24T20:09:30.457Z,1.33
2019-03-24T20:12:00.102Z,1.90
2019-03-24T20:14:30.140Z,1.80
2019-03-24T20:16:59.742Z,2.30
2019-03-24T20:19:29.618Z,1.90
2019-03-24T20:21:59.561Z,2.30
2019-03-24T20:24:29.152Z,1.90
2019-03-24T20:26:58.778Z,1.67
2019-03-24T20:29:28.539Z,1.57
2019-03-24T20:31:58.367Z,1.67
2019-03-24T20:34:28.753Z,1.80
2019-03-24T20:36:58.510Z,1.70
2019-03-24T20:39:28.233Z,1.30
2019-03-24T20:41:57.862Z,1.57
2019-03-24T20:44:27.450Z,1.60
2019-03-24T20:46:57.415Z,1.70
2019-03-24T20:49:27.302Z,1.87
2019-03-24T20:51:56.906Z,1.40
2019-03-24T20:54:26.594Z,1.47
2019-03-24T20:56:56.194Z,1.73
2019-03-24T20:59:26.316Z,1.10
2019-03-24T21:01:55.914Z,1.63
2019-03-24T21:04:25.777Z,1.67
2019-03-24T21:06:55.635Z,1.43
2019-03-24T21:09:25.562Z,1.43
2019-03-24T21:11:55.237Z,1.83
2019-03-24T21:14:24.856Z,1.77
2019-03-24T21:16:54.450Z,1.70
2019-03-24T21:19:23.966Z,1.73
2019-03-24T21:21:53.588Z,2.30
2019-03-24T21:24:23.218Z,2.03
2019-03-24T21:26:53.038Z,2.30
2019-03-24T21:29:22.633Z,1.90
2019-03-24T21:31:55.149Z,1.97
2019-03-24T21:34:24.519Z,1.90
2019-03-24T21:36:54.022Z,1.90
2019-03-24T21:39:23.752Z,1.90
2019-03-24T21:41:53.351Z,2.37
2019-03-24T21:44:23.185Z,2.53
2019-03-24T21:46:52.767Z,1.87
2019-03-24T21:49:23.089Z,2.00
2019-03-24T21:51:52.674Z,1.83
2019-03-24T21:54:22.754Z,1.70
2019-03-24T21:56:52.406Z,1.97
2019-03-24T21:59:23.460Z,1.80
2019-03-24T22:01:53.827Z,1.50
2019-03-24T22:04:23.881Z,1.40
2019-03-24T22:06:53.937Z,1.90
2019-03-24T22:09:23.547Z,1.70
2019-03-24T22:11:53.655Z,1.67
2019-03-24T22:14:23.518Z,2.00
2019-03-24T22:16:54.016Z,1.83
2019-03-24T22:19:23.623Z,1.87
2019-03-24T22:21:53.133Z,1.57
2019-03-24T22:24:23.442Z,1.60
2019-03-24T22:26:53.415Z,1.13
2019-03-24T22:29:22.936Z,1.83
2019-03-24T22:31:52.514Z,1.43
2019-03-24T22:34:22.653Z,1.77
2019-03-24T22:36:52.430Z,1.40
2019-03-24T22:39:22.015Z,1.13
2019-03-24T22:41:51.624Z,1.40
2019-03-24T22:44:21.550Z,1.47
2019-03-24T22:46:51.225Z,1.43
2019-03-24T22:49:21.270Z,1.27
2019-03-24T22:51:51.044Z,1.77
2019-03-24T22:54:20.969Z,1.53
2019-03-24T22:56:50.602Z,1.83
2019-03-24T22:59:21.079Z,1.60
2019-03-24T23:01:50.651Z,1.40
2019-03-24T23:04:20.883Z,1.60
2019-03-24T23:06:50.689Z,1.50
2019-03-24T23:09:20.184Z,1.40
2019-03-24T23:11:49.766Z,1.70
2019-03-24T23:14:19.355Z,1.27
2019-03-24T23:16:49.222Z,1.30
2019-03-24T23:19:19.043Z,1.40
2019-03-24T23:21:48.974Z,1.30
2019-03-24T23:24:18.553Z,1.30
2019-03-24T23:26:48.227Z,1.30
2019-03-24T23:29:18.326Z,1.40
2019-03-24T23:31:48.078Z,1.43
2019-03-24T23:34:17.833Z,1.37
2019-03-24T23:36:48.072Z,1.30
2019-03-24T23:39:17.907Z,1.30
2019-03-24T23:41:47.510Z,1.47
2019-03-24T23:44:17.034Z,1.30
2019-03-24T23:46:46.730Z,1.03
2019-03-24T23:49:16.771Z,1.17
2019-03-24T23:51:46.366Z,1.50
2019-03-24T23:54:26.500Z,1.03
2019-03-24T23:56:47.747Z,1.47
2019-03-24T23:59:17.607Z,1.50
